sensor_id;sensor_type;location;lat;lon;timestamp;P1;durP1;ratioP1;P2;durP2;ratioP2
18042;SDS011;9146;48.074;11.968;2024-03-02T00:00:56;9.97;;;7.77;;
18042;SDS011;9146;48.074;11.968;2024-03-02T00:03:24;9.00;;;7.47;;
18042;SDS011;9146;48.074;11.968;2024-03-02T00:05:51;13.00;;;9.00;;
18042;SDS011;9146;48.074;11.968;2024-03-02T00:08:23;10.53;;;7.90;;
18042;SDS011;9146;48.074;11.968;2024-03-02T00:10:51;10.80;;;8.27;;
18042;SDS011;9146;48.074;11.968;2024-03-02T00:13:23;9.53;;;8.30;;
18042;SDS011;9146;48.074;11.968;2024-03-02T00:15:51;10.27;;;7.63;;
18042;SDS011;9146;48.074;11.968;2024-03-02T00:18:19;12.73;;;7.30;;
18042;SDS011;9146;48.074;11.968;2024-03-02T00:20:48;12.37;;;8.30;;
18042;SDS011;9146;48.074;11.968;2024-03-02T00:23:20;11.80;;;9.27;;
18042;SDS011;9146;48.074;11.968;2024-03-02T00:25:47;9.53;;;8.53;;
18042;SDS011;9146;48.074;11.968;2024-03-02T00:28:19;10.93;;;8.57;;
18042;SDS011;9146;48.074;11.968;2024-03-02T00:30:56;15.27;;;9.93;;
18042;SDS011;9146;48.074;11.968;2024-03-02T00:33:26;11.67;;;8.93;;
18042;SDS011;9146;48.074;11.968;2024-03-02T00:35:56;13.60;;;9.40;;
18042;SDS011;9146;48.074;11.968;2024-03-02T00:38:24;15.57;;;9.27;;
18042;SDS011;9146;48.074;11.968;2024-03-02T00:40:52;16.63;;;9.83;;
18042;SDS011;9146;48.074;11.968;2024-03-02T00:46:07;17.30;;;9.90;;
18042;SDS011;9146;48.074;11.968;2024-03-02T00:48:34;13.03;;;9.20;;
18042;SDS011;9146;48.074;11.968;2024-03-02T00:51:03;14.57;;;10.47;;
18042;SDS011;9146;48.074;11.968;2024-03-02T00:53:31;13.33;;;9.10;;
18042;SDS011;9146;48.074;11.968;2024-03-02T00:55:58;11.90;;;9.17;;
18042;SDS011;9146;48.074;11.968;2024-03-02T00:58:25;12.03;;;8.90;;
18042;SDS011;9146;48.074;11.968;2024-03-02T01:00:52;10.50;;;8.20;;
18042;SDS011;9146;48.074;11.968;2024-03-02T01:03:20;13.73;;;10.20;;
18042;SDS011;9146;48.074;11.968;2024-03-02T01:05:47;11.30;;;7.97;;
18042;SDS011;9146;48.074;11.968;2024-03-02T01:08:15;17.67;;;8.93;;
18042;SDS011;9146;48.074;11.968;2024-03-02T01:10:42;8.43;;;7.47;;
18042;SDS011;9146;48.074;11.968;2024-03-02T01:13:09;12.00;;;7.37;;
18042;SDS011;9146;48.074;11.968;2024-03-02T01:15:36;12.00;;;9.30;;
18042;SDS011;9146;48.074;11.968;2024-03-02T01:18:04;12.60;;;8.70;;
18042;SDS011;9146;48.074;11.968;2024-03-02T01:20:31;11.83;;;8.10;;
18042;SDS011;9146;48.074;11.968;2024-03-02T01:22:58;12.97;;;9.40;;
18042;SDS011;9146;48.074;11.968;2024-03-02T01:25:26;13.10;;;9.83;;
18042;SDS011;9146;48.074;11.968;2024-03-02T01:27:53;12.13;;;9.83;;
18042;SDS011;9146;48.074;11.968;2024-03-02T01:30:20;12.53;;;9.00;;
18042;SDS011;9146;48.074;11.968;2024-03-02T01:32:47;16.10;;;11.10;;
18042;SDS011;9146;48.074;11.968;2024-03-02T01:35:14;15.73;;;10.80;;
18042;SDS011;9146;48.074;11.968;2024-03-02T01:37:41;17.77;;;11.80;;
18042;SDS011;9146;48.074;11.968;2024-03-02T01:40:08;19.80;;;12.63;;
18042;SDS011;9146;48.074;11.968;2024-03-02T01:42:38;19.30;;;11.83;;
18042;SDS011;9146;48.074;11.968;2024-03-02T01:45:05;18.37;;;12.33;;
18042;SDS011;9146;48.074;11.968;2024-03-02T01:47:34;23.50;;;13.90;;
18042;SDS011;9146;48.074;11.968;2024-03-02T01:50:01;20.20;;;12.73;;
18042;SDS011;9146;48.074;11.968;2024-03-02T01:52:28;17.43;;;12.70;;
18042;SDS011;9146;48.074;11.968;2024-03-02T01:54:55;19.33;;;13.80;;
18042;SDS011;9146;48.074;11.968;2024-03-02T01:57:22;25.77;;;16.63;;
18042;SDS011;9146;48.074;11.968;2024-03-02T01:59:51;23.80;;;13.73;;
18042;SDS011;9146;48.074;11.968;2024-03-02T02:02:18;20.67;;;14.27;;
18042;SDS011;9146;48.074;11.968;2024-03-02T02:04:45;23.87;;;15.60;;
18042;SDS011;9146;48.074;11.968;2024-03-02T02:07:12;26.17;;;17.37;;
18042;SDS011;9146;48.074;11.968;2024-03-02T02:09:40;24.73;;;15.70;;
18042;SDS011;9146;48.074;11.968;2024-03-02T02:12:09;22.93;;;15.90;;
18042;SDS011;9146;48.074;11.968;2024-03-02T02:14:36;27.70;;;15.67;;
18042;SDS011;9146;48.074;11.968;2024-03-02T02:17:06;20.13;;;14.47;;
18042;SDS011;9146;48.074;11.968;2024-03-02T02:19:33;20.07;;;13.93;;
18042;SDS011;9146;48.074;11.968;2024-03-02T02:22:01;17.03;;;13.03;;
18042;SDS011;9146;48.074;11.968;2024-03-02T02:24:28;19.63;;;13.87;;
18042;SDS011;9146;48.074;11.968;2024-03-02T02:26:55;22.00;;;14.37;;
18042;SDS011;9146;48.074;11.968;2024-03-02T02:29:22;24.73;;;16.20;;
18042;SDS011;9146;48.074;11.968;2024-03-02T02:31:49;20.63;;;14.90;;
18042;SDS011;9146;48.074;11.968;2024-03-02T02:34:16;23.57;;;17.10;;
18042;SDS011;9146;48.074;11.968;2024-03-02T02:36:43;16.60;;;12.47;;
18042;SDS011;9146;48.074;11.968;2024-03-02T02:39:13;20.47;;;14.60;;
18042;SDS011;9146;48.074;11.968;2024-03-02T02:41:42;21.70;;;15.40;;
18042;SDS011;9146;48.074;11.968;2024-03-02T02:44:09;21.73;;;14.90;;
18042;SDS011;9146;48.074;11.968;2024-03-02T02:46:37;20.87;;;14.63;;
18042;SDS011;9146;48.074;11.968;2024-03-02T02:49:04;19.37;;;15.00;;
18042;SDS011;9146;48.074;11.968;2024-03-02T02:51:31;22.60;;;16.63;;
18042;SDS011;9146;48.074;11.968;2024-03-02T02:53:58;18.00;;;14.10;;
18042;SDS011;9146;48.074;11.968;2024-03-02T02:56:28;20.17;;;15.60;;
18042;SDS011;9146;48.074;11.968;2024-03-02T02:58:55;20.60;;;15.57;;
18042;SDS011;9146;48.074;11.968;2024-03-02T03:01:22;20.87;;;14.47;;
18042;SDS011;9146;48.074;11.968;2024-03-02T03:03:48;18.23;;;15.03;;
18042;SDS011;9146;48.074;11.968;2024-03-02T03:06:15;28.30;;;15.70;;
18042;SDS011;9146;48.074;11.968;2024-03-02T03:08:42;22.33;;;17.13;;
18042;SDS011;9146;48.074;11.968;2024-03-02T03:11:09;20.70;;;15.90;;
18042;SDS011;9146;48.074;11.968;2024-03-02T03:13:38;21.63;;;15.20;;
18042;SDS011;9146;48.074;11.968;2024-03-02T03:16:05;22.33;;;15.30;;
18042;SDS011;9146;48.074;11.968;2024-03-02T03:18:32;22.77;;;17.43;;
18042;SDS011;9146;48.074;11.968;2024-03-02T03:20:59;21.80;;;16.33;;
18042;SDS011;9146;48.074;11.968;2024-03-02T03:23:26;28.30;;;17.37;;
18042;SDS011;9146;48.074;11.968;2024-03-02T03:25:53;24.13;;;16.83;;
18042;SDS011;9146;48.074;11.968;2024-03-02T03:28:19;23.60;;;16.53;;
18042;SDS011;9146;48.074;11.968;2024-03-02T03:30:48;24.00;;;17.70;;
18042;SDS011;9146;48.074;11.968;2024-03-02T03:33:15;22.23;;;16.90;;
18042;SDS011;9146;48.074;11.968;2024-03-02T03:35:42;23.50;;;17.57;;
18042;SDS011;9146;48.074;11.968;2024-03-02T03:38:08;28.97;;;17.33;;
18042;SDS011;9146;48.074;11.968;2024-03-02T03:40:35;25.27;;;18.47;;
18042;SDS011;9146;48.074;11.968;2024-03-02T03:43:02;21.40;;;16.90;;
18042;SDS011;9146;48.074;11.968;2024-03-02T03:45:29;22.77;;;17.67;;
18042;SDS011;9146;48.074;11.968;2024-03-02T03:47:58;22.10;;;18.30;;
18042;SDS011;9146;48.074;11.968;2024-03-02T03:50:24;21.43;;;15.77;;
18042;SDS011;9146;48.074;11.968;2024-03-02T03:52:52;25.97;;;18.30;;
18042;SDS011;9146;48.074;11.968;2024-03-02T03:55:18;25.37;;;17.60;;
18042;SDS011;9146;48.074;11.968;2024-03-02T03:57:45;24.70;;;18.90;;
18042;SDS011;9146;48.074;11.968;2024-03-02T04:00:13;28.67;;;19.43;;
18042;SDS011;9146;48.074;11.968;2024-03-02T04:02:40;27.87;;;19.27;;
18042;SDS011;9146;48.074;11.968;2024-03-02T04:05:09;27.10;;;18.87;;
18042;SDS011;9146;48.074;11.968;2024-03-02T04:07:36;29.07;;;19.80;;
18042;SDS011;9146;48.074;11.968;2024-03-02T04:10:08;37.37;;;22.50;;
18042;SDS011;9146;48.074;11.968;2024-03-02T04:12:36;33.40;;;20.47;;
18042;SDS011;9146;48.074;11.968;2024-03-02T04:15:04;32.67;;;19.37;;
18042;SDS011;9146;48.074;11.968;2024-03-02T04:17:31;44.37;;;22.83;;
18042;SDS011;9146;48.074;11.968;2024-03-02T04:20:00;40.33;;;21.63;;
18042;SDS011;9146;48.074;11.968;2024-03-02T04:22:32;38.50;;;22.47;;
18042;SDS011;9146;48.074;11.968;2024-03-02T04:25:00;38.53;;;23.10;;
18042;SDS011;9146;48.074;11.968;2024-03-02T04:27:29;43.50;;;21.40;;
18042;SDS011;9146;48.074;11.968;2024-03-02T04:29:56;36.50;;;22.30;;
18042;SDS011;9146;48.074;11.968;2024-03-02T04:32:25;34.83;;;22.33;;
18042;SDS011;9146;48.074;11.968;2024-03-02T04:34:52;36.40;;;21.57;;
18042;SDS011;9146;48.074;11.968;2024-03-02T04:37:19;41.83;;;21.20;;
18042;SDS011;9146;48.074;11.968;2024-03-02T04:39:47;37.67;;;21.80;;
18042;SDS011;9146;48.074;11.968;2024-03-02T04:42:14;37.63;;;21.93;;
18042;SDS011;9146;48.074;11.968;2024-03-02T04:44:41;39.53;;;23.53;;
18042;SDS011;9146;48.074;11.968;2024-03-02T04:47:09;36.30;;;21.07;;
18042;SDS011;9146;48.074;11.968;2024-03-02T04:49:36;30.97;;;19.57;;
18042;SDS011;9146;48.074;11.968;2024-03-02T04:52:03;28.87;;;19.63;;
18042;SDS011;9146;48.074;11.968;2024-03-02T04:54:30;34.70;;;20.97;;
18042;SDS011;9146;48.074;11.968;2024-03-02T04:56:58;36.33;;;20.07;;
18042;SDS011;9146;48.074;11.968;2024-03-02T04:59:25;34.40;;;21.57;;
18042;SDS011;9146;48.074;11.968;2024-03-02T05:01:52;35.90;;;19.70;;
18042;SDS011;9146;48.074;11.968;2024-03-02T05:04:19;37.93;;;22.33;;
18042;SDS011;9146;48.074;11.968;2024-03-02T05:06:46;31.70;;;20.43;;
18042;SDS011;9146;48.074;11.968;2024-03-02T05:09:17;31.63;;;20.43;;
18042;SDS011;9146;48.074;11.968;2024-03-02T05:11:45;31.47;;;20.13;;
18042;SDS011;9146;48.074;11.968;2024-03-02T05:14:25;27.87;;;18.73;;
18042;SDS011;9146;48.074;11.968;2024-03-02T05:16:51;31.50;;;19.83;;
18042;SDS011;9146;48.074;11.968;2024-03-02T05:19:18;32.10;;;19.10;;
18042;SDS011;9146;48.074;11.968;2024-03-02T05:21:45;31.63;;;19.30;;
18042;SDS011;9146;48.074;11.968;2024-03-02T05:24:13;28.37;;;17.60;;
18042;SDS011;9146;48.074;11.968;2024-03-02T05:26:40;31.30;;;18.70;;
18042;SDS011;9146;48.074;11.968;2024-03-02T05:29:07;29.87;;;19.50;;
18042;SDS011;9146;48.074;11.968;2024-03-02T05:31:36;32.80;;;19.20;;
18042;SDS011;9146;48.074;11.968;2024-03-02T05:34:03;35.90;;;20.50;;
18042;SDS011;9146;48.074;11.968;2024-03-02T05:36:30;30.20;;;19.00;;
18042;SDS011;9146;48.074;11.968;2024-03-02T05:38:57;34.27;;;21.10;;
18042;SDS011;9146;48.074;11.968;2024-03-02T05:41:24;36.43;;;20.20;;
18042;SDS011;9146;48.074;11.968;2024-03-02T05:43:51;33.40;;;19.30;;
18042;SDS011;9146;48.074;11.968;2024-03-02T05:46:17;35.73;;;20.33;;
18042;SDS011;9146;48.074;11.968;2024-03-02T05:48:46;34.27;;;22.60;;
18042;SDS011;9146;48.074;11.968;2024-03-02T05:51:13;37.30;;;21.73;;
18042;SDS011;9146;48.074;11.968;2024-03-02T05:53:40;39.10;;;22.90;;
18042;SDS011;9146;48.074;11.968;2024-03-02T05:56:07;36.23;;;24.10;;
18042;SDS011;9146;48.074;11.968;2024-03-02T05:58:34;37.27;;;23.00;;
18042;SDS011;9146;48.074;11.968;2024-03-02T06:01:14;38.60;;;23.57;;
18042;SDS011;9146;48.074;11.968;2024-03-02T06:03:43;42.30;;;23.90;;
18042;SDS011;9146;48.074;11.968;2024-03-02T06:06:11;52.27;;;27.50;;
18042;SDS011;9146;48.074;11.968;2024-03-02T06:08:38;43.70;;;26.93;;
18042;SDS011;9146;48.074;11.968;2024-03-02T06:11:05;48.53;;;27.30;;
18042;SDS011;9146;48.074;11.968;2024-03-02T06:13:31;52.42;;;31.85;;
18042;SDS011;9146;48.074;11.968;2024-03-02T06:15:58;49.60;;;29.13;;
18042;SDS011;9146;48.074;11.968;2024-03-02T06:18:25;55.70;;;32.70;;
18042;SDS011;9146;48.074;11.968;2024-03-02T06:20:53;59.57;;;33.83;;
18042;SDS011;9146;48.074;11.968;2024-03-02T06:23:21;70.57;;;38.07;;
18042;SDS011;9146;48.074;11.968;2024-03-02T06:25:48;57.00;;;30.07;;
18042;SDS011;9146;48.074;11.968;2024-03-02T06:28:15;45.83;;;26.80;;
18042;SDS011;9146;48.074;11.968;2024-03-02T06:30:41;43.67;;;24.10;;
18042;SDS011;9146;48.074;11.968;2024-03-02T06:33:08;36.77;;;21.90;;
18042;SDS011;9146;48.074;11.968;2024-03-02T06:35:35;34.10;;;20.90;;
18042;SDS011;9146;48.074;11.968;2024-03-02T06:38:03;29.63;;;19.30;;
18042;SDS011;9146;48.074;11.968;2024-03-02T06:40:31;33.93;;;20.57;;
18042;SDS011;9146;48.074;11.968;2024-03-02T06:42:59;30.37;;;20.40;;
18042;SDS011;9146;48.074;11.968;2024-03-02T06:45:26;39.87;;;24.03;;
18042;SDS011;9146;48.074;11.968;2024-03-02T06:47:53;35.90;;;22.03;;
18042;SDS011;9146;48.074;11.968;2024-03-02T06:50:21;36.33;;;20.57;;
18042;SDS011;9146;48.074;11.968;2024-03-02T06:52:48;37.97;;;20.20;;
18042;SDS011;9146;48.074;11.968;2024-03-02T06:55:15;33.87;;;19.00;;
18042;SDS011;9146;48.074;11.968;2024-03-02T06:57:43;34.33;;;20.30;;
18042;SDS011;9146;48.074;11.968;2024-03-02T07:00:10;31.20;;;18.00;;
18042;SDS011;9146;48.074;11.968;2024-03-02T07:02:39;39.80;;;20.77;;
18042;SDS011;9146;48.074;11.968;2024-03-02T07:05:06;55.77;;;28.70;;
18042;SDS011;9146;48.074;11.968;2024-03-02T07:07:33;47.17;;;25.80;;
18042;SDS011;9146;48.074;11.968;2024-03-02T07:10:01;49.97;;;27.27;;
18042;SDS011;9146;48.074;11.968;2024-03-02T07:12:29;51.70;;;24.90;;
18042;SDS011;9146;48.074;11.968;2024-03-02T07:14:58;43.63;;;23.83;;
18042;SDS011;9146;48.074;11.968;2024-03-02T07:17:50;44.63;;;23.73;;
18042;SDS011;9146;48.074;11.968;2024-03-02T07:20:17;46.77;;;24.20;;
18042;SDS011;9146;48.074;11.968;2024-03-02T07:22:44;39.33;;;23.63;;
18042;SDS011;9146;48.074;11.968;2024-03-02T07:25:11;36.13;;;22.80;;
18042;SDS011;9146;48.074;11.968;2024-03-02T07:27:38;46.40;;;26.90;;
18042;SDS011;9146;48.074;11.968;2024-03-02T07:30:07;34.60;;;21.97;;
18042;SDS011;9146;48.074;11.968;2024-03-02T07:32:35;42.03;;;24.30;;
18042;SDS011;9146;48.074;11.968;2024-03-02T07:35:02;42.43;;;22.40;;
18042;SDS011;9146;48.074;11.968;2024-03-02T07:37:31;39.27;;;20.00;;
18042;SDS011;9146;48.074;11.968;2024-03-02T07:39:57;39.53;;;23.33;;
18042;SDS011;9146;48.074;11.968;2024-03-02T07:42:24;46.30;;;24.80;;
18042;SDS011;9146;48.074;11.968;2024-03-02T07:44:51;44.23;;;24.27;;
18042;SDS011;9146;48.074;11.968;2024-03-02T07:47:20;42.00;;;23.60;;
18042;SDS011;9146;48.074;11.968;2024-03-02T07:49:46;43.77;;;23.07;;
18042;SDS011;9146;48.074;11.968;2024-03-02T07:52:13;40.60;;;22.97;;
18042;SDS011;9146;48.074;11.968;2024-03-02T07:54:40;52.93;;;24.47;;
18042;SDS011;9146;48.074;11.968;2024-03-02T07:57:07;40.90;;;24.07;;
18042;SDS011;9146;48.074;11.968;2024-03-02T07:59:35;35.70;;;21.87;;
18042;SDS011;9146;48.074;11.968;2024-03-02T08:02:03;33.60;;;21.23;;
18042;SDS011;9146;48.074;11.968;2024-03-02T08:04:32;45.00;;;25.07;;
18042;SDS011;9146;48.074;11.968;2024-03-02T08:06:59;41.90;;;24.80;;
18042;SDS011;9146;48.074;11.968;2024-03-02T08:09:26;35.90;;;21.73;;
18042;SDS011;9146;48.074;11.968;2024-03-02T08:11:53;40.43;;;24.93;;
18042;SDS011;9146;48.074;11.968;2024-03-02T08:14:21;40.97;;;23.13;;
18042;SDS011;9146;48.074;11.968;2024-03-02T08:16:48;40.00;;;23.50;;
18042;SDS011;9146;48.074;11.968;2024-03-02T08:19:15;38.13;;;24.43;;
18042;SDS011;9146;48.074;11.968;2024-03-02T08:21:44;35.33;;;21.90;;
18042;SDS011;9146;48.074;11.968;2024-03-02T08:24:11;36.90;;;23.47;;
18042;SDS011;9146;48.074;11.968;2024-03-02T08:26:38;42.77;;;22.03;;
18042;SDS011;9146;48.074;11.968;2024-03-02T08:29:04;42.60;;;24.93;;
18042;SDS011;9146;48.074;11.968;2024-03-02T08:31:31;36.23;;;21.57;;
18042;SDS011;9146;48.074;11.968;2024-03-02T08:33:58;37.27;;;22.53;;
18042;SDS011;9146;48.074;11.968;2024-03-02T08:36:25;37.73;;;22.70;;
18042;SDS011;9146;48.074;11.968;2024-03-02T08:38:54;32.93;;;21.30;;
18042;SDS011;9146;48.074;11.968;2024-03-02T08:41:20;39.40;;;22.77;;
18042;SDS011;9146;48.074;11.968;2024-03-02T08:43:47;33.97;;;21.13;;
18042;SDS011;9146;48.074;11.968;2024-03-02T08:46:15;33.10;;;20.00;;
18042;SDS011;9146;48.074;11.968;2024-03-02T08:48:42;31.97;;;19.40;;
18042;SDS011;9146;48.074;11.968;2024-03-02T08:51:09;33.33;;;21.07;;
18042;SDS011;9146;48.074;11.968;2024-03-02T08:53:36;29.33;;;20.07;;
18042;SDS011;9146;48.074;11.968;2024-03-02T08:56:06;31.90;;;20.73;;
18042;SDS011;9146;48.074;11.968;2024-03-02T08:58:33;26.67;;;17.70;;
18042;SDS011;9146;48.074;11.968;2024-03-02T09:01:01;32.30;;;20.10;;
18042;SDS011;9146;48.074;11.968;2024-03-02T09:03:29;31.90;;;21.60;;
18042;SDS011;9146;48.074;11.968;2024-03-02T09:05:58;27.30;;;17.10;;
18042;SDS011;9146;48.074;11.968;2024-03-02T09:08:25;29.47;;;19.43;;
18042;SDS011;9146;48.074;11.968;2024-03-02T09:10:52;31.20;;;19.40;;
18042;SDS011;9146;48.074;11.968;2024-03-02T09:13:21;33.13;;;20.90;;
18042;SDS011;9146;48.074;11.968;2024-03-02T09:15:48;33.07;;;18.43;;
18042;SDS011;9146;48.074;11.968;2024-03-02T09:18:15;24.90;;;17.37;;
18042;SDS011;9146;48.074;11.968;2024-03-02T09:20:42;31.27;;;19.87;;
18042;SDS011;9146;48.074;11.968;2024-03-02T09:23:09;30.93;;;19.67;;
18042;SDS011;9146;48.074;11.968;2024-03-02T09:25:35;26.30;;;18.27;;
18042;SDS011;9146;48.074;11.968;2024-03-02T09:28:03;25.60;;;17.33;;
18042;SDS011;9146;48.074;11.968;2024-03-02T09:30:31;29.30;;;16.67;;
18042;SDS011;9146;48.074;11.968;2024-03-02T09:32:58;25.20;;;16.80;;
18042;SDS011;9146;48.074;11.968;2024-03-02T09:35:25;30.77;;;19.00;;
18042;SDS011;9146;48.074;11.968;2024-03-02T09:37:52;28.03;;;18.83;;
18042;SDS011;9146;48.074;11.968;2024-03-02T09:40:21;24.10;;;17.00;;
18042;SDS011;9146;48.074;11.968;2024-03-02T09:42:48;25.73;;;17.30;;
18042;SDS011;9146;48.074;11.968;2024-03-02T09:45:18;27.47;;;17.87;;
18042;SDS011;9146;48.074;11.968;2024-03-02T09:47:51;28.10;;;18.10;;
18042;SDS011;9146;48.074;11.968;2024-03-02T09:50:18;27.07;;;17.50;;
18042;SDS011;9146;48.074;11.968;2024-03-02T09:52:47;22.10;;;15.20;;
18042;SDS011;9146;48.074;11.968;2024-03-02T09:55:15;22.90;;;15.30;;
18042;SDS011;9146;48.074;11.968;2024-03-02T09:57:43;24.90;;;16.63;;
18042;SDS011;9146;48.074;11.968;2024-03-02T10:00:10;27.07;;;16.63;;
18042;SDS011;9146;48.074;11.968;2024-03-02T10:02:39;24.50;;;16.30;;
18042;SDS011;9146;48.074;11.968;2024-03-02T10:05:08;27.40;;;16.70;;
18042;SDS011;9146;48.074;11.968;2024-03-02T10:07:36;31.80;;;17.27;;
18042;SDS011;9146;48.074;11.968;2024-03-02T10:10:12;34.13;;;16.83;;
18042;SDS011;9146;48.074;11.968;2024-03-02T10:12:40;25.73;;;15.20;;
18042;SDS011;9146;48.074;11.968;2024-03-02T10:15:07;22.73;;;15.20;;
18042;SDS011;9146;48.074;11.968;2024-03-02T10:17:34;26.40;;;18.17;;
18042;SDS011;9146;48.074;11.968;2024-03-02T10:22:54;23.17;;;15.70;;
18042;SDS011;9146;48.074;11.968;2024-03-02T10:25:30;19.77;;;15.40;;
18042;SDS011;9146;48.074;11.968;2024-03-02T10:27:58;24.33;;;15.90;;
18042;SDS011;9146;48.074;11.968;2024-03-02T10:30:25;22.07;;;14.67;;
18042;SDS011;9146;48.074;11.968;2024-03-02T10:32:53;18.27;;;13.60;;
18042;SDS011;9146;48.074;11.968;2024-03-02T10:35:21;21.60;;;15.40;;
18042;SDS011;9146;48.074;11.968;2024-03-02T10:37:52;25.37;;;15.73;;
18042;SDS011;9146;48.074;11.968;2024-03-02T10:40:21;19.90;;;14.43;;
18042;SDS011;9146;48.074;11.968;2024-03-02T10:42:48;21.67;;;15.13;;
18042;SDS011;9146;48.074;11.968;2024-03-02T10:45:16;19.83;;;13.90;;
18042;SDS011;9146;48.074;11.968;2024-03-02T10:47:46;18.20;;;13.87;;
18042;SDS011;9146;48.074;11.968;2024-03-02T10:50:13;21.33;;;14.67;;
18042;SDS011;9146;48.074;11.968;2024-03-02T10:52:41;20.20;;;13.63;;
18042;SDS011;9146;48.074;11.968;2024-03-02T10:55:10;23.53;;;14.10;;
18042;SDS011;9146;48.074;11.968;2024-03-02T10:57:41;21.60;;;14.20;;
18042;SDS011;9146;48.074;11.968;2024-03-02T11:00:11;20.90;;;13.47;;
18042;SDS011;9146;48.074;11.968;2024-03-02T11:02:42;17.97;;;13.90;;
18042;SDS011;9146;48.074;11.968;2024-03-02T11:05:13;18.13;;;12.53;;
18042;SDS011;9146;48.074;11.968;2024-03-02T11:07:50;20.07;;;14.00;;
18042;SDS011;9146;48.074;11.968;2024-03-02T11:10:24;19.60;;;13.47;;
18042;SDS011;9146;48.074;11.968;2024-03-02T11:12:56;20.53;;;13.47;;
18042;SDS011;9146;48.074;11.968;2024-03-02T11:15:29;17.90;;;12.80;;
18042;SDS011;9146;48.074;11.968;2024-03-02T11:17:57;18.10;;;12.57;;
18042;SDS011;9146;48.074;11.968;2024-03-02T11:20:25;18.50;;;12.37;;
18042;SDS011;9146;48.074;11.968;2024-03-02T11:22:53;17.67;;;12.20;;
18042;SDS011;9146;48.074;11.968;2024-03-02T11:25:25;16.87;;;12.60;;
18042;SDS011;9146;48.074;11.968;2024-03-02T11:27:59;19.37;;;13.97;;
18042;SDS011;9146;48.074;11.968;2024-03-02T11:33:22;18.33;;;12.97;;
18042;SDS011;9146;48.074;11.968;2024-03-02T11:35:52;15.07;;;11.03;;
18042;SDS011;9146;48.074;11.968;2024-03-02T11:38:19;18.93;;;12.00;;
18042;SDS011;9146;48.074;11.968;2024-03-02T11:40:47;16.23;;;11.80;;
18042;SDS011;9146;48.074;11.968;2024-03-02T11:43:15;18.20;;;12.30;;
18042;SDS011;9146;48.074;11.968;2024-03-02T11:45:42;15.83;;;12.33;;
18042;SDS011;9146;48.074;11.968;2024-03-02T11:48:10;21.97;;;14.40;;
18042;SDS011;9146;48.074;11.968;2024-03-02T11:50:40;17.80;;;11.70;;
18042;SDS011;9146;48.074;11.968;2024-03-02T11:53:09;16.63;;;12.87;;
18042;SDS011;9146;48.074;11.968;2024-03-02T11:55:38;20.77;;;12.87;;
18042;SDS011;9146;48.074;11.968;2024-03-02T11:58:07;18.10;;;12.60;;
18042;SDS011;9146;48.074;11.968;2024-03-02T12:00:35;17.60;;;13.40;;
18042;SDS011;9146;48.074;11.968;2024-03-02T12:03:02;25.50;;;14.50;;
18042;SDS011;9146;48.074;11.968;2024-03-02T12:05:32;18.80;;;14.33;;
18042;SDS011;9146;48.074;11.968;2024-03-02T12:08:00;25.83;;;14.07;;
18042;SDS011;9146;48.074;11.968;2024-03-02T12:10:28;23.33;;;16.37;;
18042;SDS011;9146;48.074;11.968;2024-03-02T12:12:56;30.50;;;17.30;;
18042;SDS011;9146;48.074;11.968;2024-03-02T12:15:27;24.70;;;16.50;;
18042;SDS011;9146;48.074;11.968;2024-03-02T12:17:55;25.03;;;16.80;;
18042;SDS011;9146;48.074;11.968;2024-03-02T12:20:22;27.77;;;19.00;;
18042;SDS011;9146;48.074;11.968;2024-03-02T12:22:50;29.00;;;19.10;;
18042;SDS011;9146;48.074;11.968;2024-03-02T12:25:18;29.10;;;18.80;;
18042;SDS011;9146;48.074;11.968;2024-03-02T12:27:46;27.13;;;18.30;;
18042;SDS011;9146;48.074;11.968;2024-03-02T12:30:15;31.20;;;19.67;;
18042;SDS011;9146;48.074;11.968;2024-03-02T12:32:45;32.13;;;19.90;;
18042;SDS011;9146;48.074;11.968;2024-03-02T12:35:13;29.43;;;20.43;;
18042;SDS011;9146;48.074;11.968;2024-03-02T12:37:43;42.63;;;21.40;;
18042;SDS011;9146;48.074;11.968;2024-03-02T12:40:11;28.80;;;19.80;;
18042;SDS011;9146;48.074;11.968;2024-03-02T12:42:38;31.50;;;21.03;;
18042;SDS011;9146;48.074;11.968;2024-03-02T12:45:05;39.77;;;23.00;;
18042;SDS011;9146;48.074;11.968;2024-03-02T12:47:33;38.37;;;24.20;;
18042;SDS011;9146;48.074;11.968;2024-03-02T12:50:02;32.70;;;21.10;;
18042;SDS011;9146;48.074;11.968;2024-03-02T12:52:30;33.63;;;20.20;;
18042;SDS011;9146;48.074;11.968;2024-03-02T12:54:59;33.23;;;21.90;;
18042;SDS011;9146;48.074;11.968;2024-03-02T12:57:26;30.90;;;20.33;;
18042;SDS011;9146;48.074;11.968;2024-03-02T12:59:56;37.77;;;22.17;;
18042;SDS011;9146;48.074;11.968;2024-03-02T13:02:27;30.67;;;19.93;;
18042;SDS011;9146;48.074;11.968;2024-03-02T13:04:55;40.07;;;22.43;;
18042;SDS011;9146;48.074;11.968;2024-03-02T13:07:23;29.27;;;19.53;;
18042;SDS011;9146;48.074;11.968;2024-03-02T13:09:50;30.60;;;20.33;;
18042;SDS011;9146;48.074;11.968;2024-03-02T13:12:18;31.37;;;21.87;;
18042;SDS011;9146;48.074;11.968;2024-03-02T13:14:48;32.03;;;21.30;;
18042;SDS011;9146;48.074;11.968;2024-03-02T13:17:16;33.30;;;19.53;;
18042;SDS011;9146;48.074;11.968;2024-03-02T13:19:50;29.83;;;20.07;;
18042;SDS011;9146;48.074;11.968;2024-03-02T13:22:19;29.70;;;18.40;;
18042;SDS011;9146;48.074;11.968;2024-03-02T13:24:47;35.30;;;22.47;;
18042;SDS011;9146;48.074;11.968;2024-03-02T13:27:15;33.53;;;22.90;;
18042;SDS011;9146;48.074;11.968;2024-03-02T13:29:44;29.30;;;19.73;;
18042;SDS011;9146;48.074;11.968;2024-03-02T13:32:12;33.90;;;22.90;;
18042;SDS011;9146;48.074;11.968;2024-03-02T13:34:38;35.23;;;22.97;;
18042;SDS011;9146;48.074;11.968;2024-03-02T13:37:06;32.53;;;22.07;;
18042;SDS011;9146;48.074;11.968;2024-03-02T13:39:34;35.10;;;22.13;;
18042;SDS011;9146;48.074;11.968;2024-03-02T13:42:07;33.97;;;20.80;;
18042;SDS011;9146;48.074;11.968;2024-03-02T13:44:34;28.77;;;19.67;;
18042;SDS011;9146;48.074;11.968;2024-03-02T13:47:01;30.07;;;20.60;;
18042;SDS011;9146;48.074;11.968;2024-03-02T13:49:29;34.10;;;22.00;;
18042;SDS011;9146;48.074;11.968;2024-03-02T13:52:01;30.47;;;19.60;;
18042;SDS011;9146;48.074;11.968;2024-03-02T13:54:36;28.80;;;19.53;;
18042;SDS011;9146;48.074;11.968;2024-03-02T13:57:04;31.60;;;19.03;;
18042;SDS011;9146;48.074;11.968;2024-03-02T13:59:32;25.13;;;18.17;;
18042;SDS011;9146;48.074;11.968;2024-03-02T14:02:00;28.67;;;18.57;;
18042;SDS011;9146;48.074;11.968;2024-03-02T14:04:27;25.63;;;17.73;;
18042;SDS011;9146;48.074;11.968;2024-03-02T14:06:54;28.40;;;19.40;;
18042;SDS011;9146;48.074;11.968;2024-03-02T14:09:21;27.43;;;19.70;;
18042;SDS011;9146;48.074;11.968;2024-03-02T14:11:49;27.20;;;19.47;;
18042;SDS011;9146;48.074;11.968;2024-03-02T14:14:16;25.50;;;19.23;;
18042;SDS011;9146;48.074;11.968;2024-03-02T14:16:45;28.03;;;19.10;;
18042;SDS011;9146;48.074;11.968;2024-03-02T14:19:12;24.03;;;17.27;;
18042;SDS011;9146;48.074;11.968;2024-03-02T14:21:39;28.37;;;18.50;;
18042;SDS011;9146;48.074;11.968;2024-03-02T14:24:06;25.40;;;18.50;;
18042;SDS011;9146;48.074;11.968;2024-03-02T14:26:34;29.43;;;19.90;;
18042;SDS011;9146;48.074;11.968;2024-03-02T14:29:01;24.53;;;18.10;;
18042;SDS011;9146;48.074;11.968;2024-03-02T14:31:28;21.80;;;17.80;;
18042;SDS011;9146;48.074;11.968;2024-03-02T14:33:57;27.40;;;17.90;;
18042;SDS011;9146;48.074;11.968;2024-03-02T14:36:24;24.50;;;18.20;;